Time;durP1;ratioP1;P1;durP2;ratioP2;P2;SDS_P1;SDS_P2;PMS_P1;PMS_P2;Temp;Humidity;BMP_temperature;BMP_pressure;BME280_temperature;BME280_humidity;BME280_pressure;Samples;Min_cycle;Max_cycle;Signal;HPM_P1;HPM_P2
2021/03/18 00:01:21;;;;;;;18.07;14.13;;;;;;;4.16;66.37;101325.97;5060127;28;20503;-81
2021/03/18 00:03:49;;;;;;;19.13;15.40;;;;;;;4.11;65.74;101333.25;5061207;28;20489;-83
2021/03/18 00:06:16;;;;;;;25.67;15.90;;;;;;;4.07;65.67;101332.56;5060157;28;20480;-83
2021/03/18 00:08:43;;;;;;;17.37;13.83;;;;;;;4.03;65.79;101323.06;5061717;28;20449;-83
2021/03/18 00:11:11;;;;;;;20.13;14.20;;;;;;;4.03;65.49;101325.69;5060451;28;20557;-82
2021/03/18 00:13:38;;;;;;;19.17;14.40;;;;;;;4.03;65.48;101331.00;5060414;28;20437;-81
2021/03/18 00:16:05;;;;;;;19.87;13.63;;;;;;;3.69;66.38;101327.25;5060952;28;20484;-81
2021/03/18 00:18:38;;;;;;;19.07;14.63;;;;;;;3.67;67.21;101322.97;5061327;28;20488;-82
2021/03/18 00:21:05;;;;;;;17.90;13.77;;;;;;;3.79;67.57;101321.56;5060529;28;21041;-82
2021/03/18 00:23:32;;;;;;;19.80;13.43;;;;;;;3.87;67.46;101317.63;5060926;28;20225;-83
2021/03/18 00:25:59;;;;;;;21.73;13.97;;;;;;;3.83;67.21;101317.81;5060697;28;20480;-83
2021/03/18 00:28:25;;;;;;;17.48;13.25;;;;;;;3.73;67.52;101315.63;5060750;28;20456;-82
2021/03/18 00:30:52;;;;;;;21.20;13.77;;;;;;;3.95;66.79;101317.25;5060439;28;20249;-81
2021/03/18 00:33:18;;;;;;;18.57;14.50;;;;;;;4.05;66.60;101318.53;5061035;28;20503;-82
2021/03/18 00:35:45;;;;;;;19.47;14.90;;;;;;;4.04;66.54;101315.97;5060236;28;20500;-83
2021/03/18 00:38:12;;;;;;;20.40;13.70;;;;;;;3.97;66.28;101315.38;5061721;28;20483;-83
2021/03/18 00:40:41;;;;;;;22.13;14.40;;;;;;;4.07;66.17;101321.13;5060217;28;20496;-80
2021/03/18 00:43:09;;;;;;;18.50;13.57;;;;;;;4.09;66.34;101314.81;5060786;28;20591;-81
2021/03/18 00:45:37;;;;;;;16.17;13.80;;;;;;;4.06;66.50;101309.69;5060288;28;20503;-84
2021/03/18 00:48:05;;;;;;;23.77;16.27;;;;;;;4.10;65.84;101324.47;5060844;28;20492;-82
2021/03/18 00:50:36;;;;;;;18.27;14.07;;;;;;;4.13;65.80;101323.47;5059790;28;20469;-83
2021/03/18 00:53:04;;;;;;;19.33;13.90;;;;;;;4.14;66.34;101327.84;5060145;28;20465;-83
2021/03/18 00:55:31;;;;;;;19.03;15.10;;;;;;;4.26;66.27;101335.19;5060807;28;20548;-83
2021/03/18 00:57:57;;;;;;;21.07;15.57;;;;;;;4.49;65.52;101327.91;5060275;28;20469;-82
2021/03/18 01:00:26;;;;;;;22.37;15.67;;;;;;;4.70;64.81;101332.19;5060657;28;20488;-82
2021/03/18 01:02:52;;;;;;;20.43;15.90;;;;;;;4.81;64.65;101334.28;5059675;28;20583;-83
2021/03/18 01:05:23;;;;;;;23.30;15.30;;;;;;;5.01;64.18;101335.06;5060126;28;20472;-81
2021/03/18 01:07:50;;;;;;;22.77;15.00;;;;;;;5.23;63.53;101334.84;5060787;28;20475;-82
2021/03/18 01:10:17;;;;;;;20.67;15.63;;;;;;;5.12;64.04;101330.09;5060574;28;20441;-82
2021/03/18 01:12:43;;;;;;;23.93;17.50;;;;;;;5.09;64.93;101336.38;5060813;28;20455;-81
2021/03/18 01:15:11;;;;;;;23.83;18.33;;;;;;;5.23;65.00;101338.34;5060130;28;20463;-80
2021/03/18 01:17:37;;;;;;;25.73;17.43;;;;;;;5.28;65.30;101341.59;5060859;28;21043;-82
2021/03/18 01:20:05;;;;;;;26.53;18.10;;;;;;;5.40;65.29;101333.94;5060226;28;20485;-82
2021/03/18 01:22:31;;;;;;;31.70;19.30;;;;;;;5.42;65.04;101334.72;5060147;28;20819;-82
2021/03/18 01:24:57;;;;;;;28.63;18.70;;;;;;;5.49;65.13;101340.56;5063671;28;20441;-81
2021/03/18 01:27:24;;;;;;;28.50;20.13;;;;;;;5.60;65.10;101336.38;5063646;28;20511;-81
2021/03/18 01:29:51;;;;;;;32.80;20.80;;;;;;;5.66;65.13;101332.56;5063440;28;20707;-80
2021/03/18 01:32:17;;;;;;;38.70;23.30;;;;;;;5.46;66.19;101333.63;5063142;28;20480;-81
2021/03/18 01:34:43;;;;;;;31.00;22.10;;;;;;;5.55;66.37;101335.78;5064455;28;20437;-79
2021/03/18 01:37:09;;;;;;;34.90;22.47;;;;;;;5.45;66.78;101329.25;5063938;28;20512;-81
2021/03/18 01:39:36;;;;;;;31.97;21.03;;;;;;;5.62;66.26;101323.03;5063581;28;20543;-81
2021/03/18 01:42:02;;;;;;;31.33;22.23;;;;;;;5.51;66.69;101323.63;5063564;28;20508;-83
2021/03/18 01:44:29;;;;;;;40.83;24.97;;;;;;;5.59;66.64;101313.47;5064238;28;21002;-82
2021/03/18 01:46:56;;;;;;;38.53;23.93;;;;;;;5.64;66.44;101305.25;5063638;28;20934;-82
2021/03/18 01:49:22;;;;;;;38.37;24.77;;;;;;;5.71;66.33;101301.34;5063602;28;20507;-82
2021/03/18 01:51:48;;;;;;;32.10;23.97;;;;;;;5.69;66.59;101303.19;5063567;28;20998;-78
2021/03/18 01:54:15;;;;;;;36.00;23.53;;;;;;;5.76;66.30;101309.88;5064530;28;20472;-81
2021/03/18 01:56:41;;;;;;;33.40;24.77;;;;;;;5.61;66.66;101306.28;5063310;28;20500;-82
2021/03/18 01:59:07;;;;;;;36.47;24.20;;;;;;;5.61;66.60;101302.78;5063833;28;20479;-81
2021/03/18 02:01:34;;;;;;;35.23;23.50;;;;;;;5.62;66.58;101307.13;5062348;28;20488;-82
2021/03/18 02:04:02;;;;;;;35.90;24.20;;;;;;;5.72;66.38;101295.06;5062865;28;20468;-82
2021/03/18 02:06:29;;;;;;;36.90;23.90;;;;;;;5.69;66.84;101294.38;5062647;28;20484;-80
2021/03/18 02:08:55;;;;;;;38.63;25.37;;;;;;;5.75;66.37;101296.72;5063613;28;20426;-82
2021/03/18 02:11:21;;;;;;;37.80;24.80;;;;;;;5.77;66.21;101292.19;5063070;28;20493;-81
2021/03/18 02:13:48;;;;;;;40.47;25.50;;;;;;;5.52;67.04;101290.88;5063851;28;20556;-81
2021/03/18 02:16:14;;;;;;;39.73;25.63;;;;;;;5.50;67.02;101274.16;5062724;28;20561;-81
2021/03/18 02:18:48;;;;;;;34.30;24.57;;;;;;;5.45;67.10;101282.38;5044706;28;20473;-81
2021/03/18 02:21:53;;;;;;;49.87;26.63;;;;;;;5.37;67.67;101271.31;5059703;28;20487;-81
2021/03/18 02:24:32;;;;;;;41.00;26.93;;;;;;;5.69;66.89;101271.34;5056683;28;20528;-82
2021/03/18 02:27:34;;;;;;;41.40;27.17;;;;;;;5.56;67.00;101265.03;5054008;28;20520;-82
2021/03/18 02:30:30;;;;;;;43.13;25.90;;;;;;;5.58;67.15;101271.94;5060030;28;20441;-80
2021/03/18 02:33:14;;;;;;;45.80;27.10;;;;;;;5.06;68.65;101262.31;5062874;28;20563;-81
2021/03/18 02:35:44;;;;;;;38.53;26.60;;;;;;;5.36;67.75;101256.31;5061057;28;20468;-80
2021/03/18 02:38:12;;;;;;;67.20;28.77;;;;;;;5.38;67.53;101259.78;5063273;28;20468;-81
2021/03/18 02:40:42;;;;;;;45.43;27.93;;;;;;;5.33;67.92;101266.25;5063119;28;20472;-82
2021/03/18 02:43:10;;;;;;;50.97;27.53;;;;;;;5.38;67.31;101261.56;5062672;28;20453;-81
2021/03/18 02:45:39;;;;;;;44.00;28.70;;;;;;;5.43;67.74;101255.09;5062615;28;20491;-79
2021/03/18 02:48:09;;;;;;;56.90;29.07;;;;;;;5.15;68.37;101258.34;5062528;28;20467;-82
2021/03/18 02:50:35;;;;;;;52.00;28.90;;;;;;;5.31;67.83;101252.22;5062426;28;20487;-81
2021/03/18 02:53:03;;;;;;;50.73;28.57;;;;;;;5.54;67.27;101240.34;5062712;28;20476;-79
2021/03/18 02:55:31;;;;;;;78.50;29.07;;;;;;;5.39;67.74;101250.88;5062353;28;20460;-81
2021/03/18 02:57:59;;;;;;;56.30;29.80;;;;;;;5.46;67.28;101248.75;5061683;28;20509;-79
2021/03/18 03:00:25;;;;;;;73.43;29.00;;;;;;;5.30;67.94;101250.53;5061954;28;20490;-82
2021/03/18 03:02:52;;;;;;;57.80;30.10;;;;;;;5.33;67.79;101251.22;5052190;28;20548;-82
2021/03/18 03:05:20;;;;;;;49.80;29.73;;;;;;;5.42;67.51;101250.72;5053622;28;20891;-82
2021/03/18 03:07:47;;;;;;;47.17;30.67;;;;;;;5.50;67.11;101252.94;5063004;28;20472;-81
2021/03/18 03:10:17;;;;;;;59.30;31.00;;;;;;;5.51;67.39;101251.16;5061634;28;20502;-81
2021/03/18 03:12:44;;;;;;;51.27;27.80;;;;;;;5.46;67.16;101246.94;5048844;28;20464;-78
2021/03/18 03:15:11;;;;;;;64.77;28.17;;;;;;;5.39;67.64;101247.38;5043463;28;20450;-80
2021/03/18 03:17:38;;;;;;;89.47;32.13;;;;;;;5.03;68.94;101249.22;5062752;28;20441;-83
2021/03/18 03:20:08;;;;;;;90.33;30.27;;;;;;;4.94;69.18;101251.50;5061434;28;20517;-78
2021/03/18 03:22:35;;;;;;;81.00;31.40;;;;;;;5.00;69.02;101249.41;5061771;28;20453;-82
2021/03/18 03:25:01;;;;;;;59.00;29.83;;;;;;;5.13;68.50;101254.91;5062267;28;20430;-81
2021/03/18 03:27:29;;;;;;;101.30;29.67;;;;;;;5.11;68.33;101259.44;5044076;28;20512;-81
2021/03/18 03:29:55;;;;;;;64.63;30.30;;;;;;;5.23;68.22;101253.50;5042970;28;20473;-80
2021/03/18 03:32:21;;;;;;;102.00;30.97;;;;;;;4.57;70.25;101248.97;5059995;28;20496;-81
2021/03/18 03:34:48;;;;;;;48.50;26.93;;;;;;;5.04;69.08;101258.91;5062025;28;20445;-80
2021/03/18 03:37:14;;;;;;;63.93;29.50;;;;;;;5.13;68.67;101246.13;5041946;28;21051;-81
2021/03/18 03:39:40;;;;;;;54.63;29.40;;;;;;;5.08;68.85;101246.34;5044928;28;20440;-80
2021/03/18 03:42:08;;;;;;;52.03;28.70;;;;;;;5.27;68.28;101243.56;5062138;28;21050;-80
2021/03/18 03:44:36;;;;;;;58.10;29.60;;;;;;;5.25;68.09;101240.16;5062415;28;20433;-81
2021/03/18 03:47:03;;;;;;;84.27;28.57;;;;;;;5.11;68.31;101240.03;5061535;28;20504;-80
2021/03/18 03:49:30;;;;;;;68.83;29.27;;;;;;;5.09;68.19;101237.47;5053710;28;20914;-81
2021/03/18 03:52:01;;;;;;;88.87;29.93;;;;;;;5.09;68.17;101240.13;5056956;28;20515;-81
2021/03/18 03:54:28;;;;;;;66.70;27.00;;;;;;;5.00;68.33;101236.16;5062219;28;20426;-80
2021/03/18 03:56:58;;;;;;;73.80;26.97;;;;;;;4.98;68.17;101238.03;5060727;28;21010;-81
2021/03/18 03:59:25;;;;;;;60.20;26.03;;;;;;;5.11;67.84;101238.25;5061063;28;20472;-82
2021/03/18 04:01:53;;;;;;;87.50;29.20;;;;;;;5.03;68.15;101237.78;5060970;28;20482;-81
2021/03/18 04:04:24;;;;;;;82.33;28.07;;;;;;;5.25;67.38;101235.69;5060724;28;20504;-81
2021/03/18 04:06:54;;;;;;;118.07;27.90;;;;;;;4.86;67.89;101234.22;5057684;28;20524;-82
2021/03/18 04:09:20;;;;;;;90.93;26.00;;;;;;;4.88;68.34;101242.09;5054995;28;20508;-81
2021/03/18 04:11:47;;;;;;;72.57;28.13;;;;;;;5.08;67.86;101239.25;5060794;28;21373;-80
2021/03/18 04:14:14;;;;;;;84.63;28.63;;;;;;;5.06;67.97;101240.28;5061760;28;20467;-80
2021/03/18 04:16:43;;;;;;;73.07;24.83;;;;;;;4.73;69.02;101243.72;5054621;28;20517;-80
2021/03/18 04:19:14;;;;;;;93.43;29.47;;;;;;;4.96;68.47;101241.69;5047151;28;20446;-81
2021/03/18 04:21:42;;;;;;;50.90;27.60;;;;;;;5.12;67.89;101239.97;5056062;28;20496;-80
2021/03/18 04:24:11;;;;;;;72.30;25.57;;;;;;;4.82;68.28;101235.31;5061578;28;20955;-82
2021/03/18 04:26:38;;;;;;;68.73;27.00;;;;;;;4.77;68.28;101234.69;5060503;28;20583;-81
2021/03/18 04:29:05;;;;;;;127.10;27.50;;;;;;;4.37;69.65;101235.84;5050996;28;20489;-82
2021/03/18 04:31:32;;;;;;;115.57;25.60;;;;;;;3.84;71.05;101237.56;5052759;28;20515;-81
2021/03/18 04:34:00;;;;;;;127.90;27.10;;;;;;;3.81;72.21;101235.03;5045535;28;20480;-80
2021/03/18 04:36:27;;;;;;;73.70;27.47;;;;;;;4.30;70.66;101230.00;5058450;28;20568;-81
2021/03/18 04:38:55;;;;;;;85.47;25.00;;;;;;;3.86;71.67;101233.03;5046080;28;20452;-81
2021/03/18 04:41:21;;;;;;;97.87;25.23;;;;;;;5.22;67.25;101235.84;5060701;28;20530;-82
2021/03/18 04:43:47;;;;;;;56.47;25.17;;;;;;;5.79;65.19;101227.47;5060747;28;20488;-81
2021/03/18 04:46:28;;;;;;;101.97;26.43;;;;;;;5.87;64.54;101226.16;5060631;28;20508;-82
2021/03/18 04:48:56;;;;;;;69.53;24.37;;;;;;;6.10;63.91;101219.59;5004179;28;20894;-80
2021/03/18 04:51:23;;;;;;;80.07;27.27;;;;;;;5.91;64.57;101217.97;5018391;28;20713;-82
2021/03/18 04:53:50;;;;;;;57.63;25.10;;;;;;;5.84;64.30;101221.91;5007416;28;20582;-81
2021/03/18 04:56:18;;;;;;;46.03;25.07;;;;;;;5.94;64.04;101217.78;4998685;28;20860;-80
2021/03/18 04:58:46;;;;;;;45.27;24.47;;;;;;;6.01;63.73;101218.34;5012314;28;20485;-82
2021/03/18 05:01:12;;;;;;;104.53;26.80;;;;;;;5.99;63.71;101221.06;5007339;28;20479;-82
2021/03/18 05:03:41;;;;;;;77.30;25.30;;;;;;;6.05;63.41;101214.56;5002455;28;20515;-82
2021/03/18 05:06:08;;;;;;;67.77;24.33;;;;;;;5.99;63.72;101215.75;5003791;28;20908;-83
2021/03/18 05:08:35;;;;;;;47.60;26.17;;;;;;;6.15;63.23;101213.09;5003789;28;20454;-83
2021/03/18 05:11:03;;;;;;;81.97;28.63;;;;;;;6.29;62.96;101209.63;5010598;28;20498;-82
2021/03/18 05:13:30;;;;;;;118.30;29.93;;;;;;;6.17;63.26;101211.19;5018260;28;20479;-83
2021/03/18 05:15:57;;;;;;;53.47;25.00;;;;;;;6.16;63.66;101206.84;5016054;28;20486;-84
2021/03/18 05:18:23;;;;;;;48.30;25.57;;;;;;;6.20;63.67;101204.84;5005528;28;20545;-80
2021/03/18 05:20:50;;;;;;;61.13;24.47;;;;;;;6.29;62.91;101206.97;5003048;28;20514;-81
2021/03/18 05:23:17;;;;;;;47.23;24.60;;;;;;;6.27;62.78;101203.56;5006830;28;20464;-82
2021/03/18 05:25:45;;;;;;;54.97;23.33;;;;;;;6.10;63.28;101195.72;5009218;28;20500;-83
2021/03/18 05:28:12;;;;;;;76.30;26.17;;;;;;;6.24;62.91;101201.06;5035009;28;20909;-82
2021/03/18 05:30:39;;;;;;;57.20;25.50;;;;;;;6.21;63.13;101196.81;5042473;28;20564;-82
2021/03/18 05:33:05;;;;;;;47.83;25.10;;;;;;;6.33;63.04;101192.56;5042814;28;21001;-82
2021/03/18 05:35:33;;;;;;;55.23;25.20;;;;;;;6.28;62.89;101188.47;5037448;28;20489;-82
2021/03/18 05:38:01;;;;;;;66.30;25.20;;;;;;;5.97;63.68;101196.41;5044112;28;20472;-81
2021/03/18 05:40:28;;;;;;;53.40;23.47;;;;;;;5.39;65.45;101199.63;5042131;28;20854;-82
2021/03/18 05:42:54;;;;;;;64.87;24.40;;;;;;;4.76;66.06;101187.94;5043447;28;20949;-83
2021/03/18 05:45:21;;;;;;;48.60;24.27;;;;;;;4.97;67.31;101196.56;5044227;28;20516;-84
2021/03/18 05:47:49;;;;;;;70.00;24.43;;;;;;;5.38;65.96;101203.22;5042155;28;20553;-82
2021/03/18 05:50:18;;;;;;;59.93;24.70;;;;;;;5.11;66.65;101193.19;5042711;28;20461;-84
2021/03/18 05:52:45;;;;;;;76.77;25.37;;;;;;;4.85;67.02;101197.22;5042629;28;20521;-84
2021/03/18 05:55:12;;;;;;;58.13;25.23;;;;;;;4.87;67.37;101190.03;5044158;28;20481;-84
2021/03/18 05:57:40;;;;;;;41.30;23.73;;;;;;;5.45;65.93;101186.03;5042998;28;20449;-79
2021/03/18 06:00:08;;;;;;;54.37;23.67;;;;;;;5.57;65.45;101195.09;5041756;28;20536;-81
2021/03/18 06:02:36;;;;;;;58.20;27.23;;;;;;;5.36;65.79;101181.22;5041685;28;20484;-80
2021/03/18 06:05:05;;;;;;;51.53;27.33;;;;;;;5.57;65.69;101190.69;5042558;28;20536;-83
2021/03/18 06:07:31;;;;;;;43.37;25.33;;;;;;;5.58;65.45;101194.19;5062210;28;20504;-83
2021/03/18 06:09:57;;;;;;;39.73;24.87;;;;;;;5.39;66.29;101195.19;5060379;28;21058;-83
2021/03/18 06:12:24;;;;;;;38.03;24.83;;;;;;;5.45;65.87;101188.66;5061935;28;20477;-80
2021/03/18 06:14:50;;;;;;;38.80;24.70;;;;;;;5.04;66.30;101187.34;5063328;28;20437;-82
2021/03/18 06:17:16;;;;;;;41.90;24.27;;;;;;;4.94;66.79;101187.91;5062232;28;20476;-83
2021/03/18 06:19:44;;;;;;;34.27;23.07;;;;;;;5.38;65.55;101188.19;5058982;28;20990;-79
2021/03/18 06:22:10;;;;;;;38.37;24.00;;;;;;;5.66;64.45;101184.00;5062350;28;20484;-84
2021/03/18 06:24:48;;;;;;;40.73;24.60;;;;;;;5.76;64.00;101179.84;5062030;28;20444;-83
2021/03/18 06:27:21;;;;;;;38.37;24.07;;;;;;;5.31;65.66;101175.31;5062572;28;20512;-79
2021/03/18 06:29:47;;;;;;;43.80;24.70;;;;;;;5.68;64.68;101170.63;5062166;28;20496;-80
2021/03/18 06:32:18;;;;;;;46.00;23.70;;;;;;;4.47;67.83;101170.91;5061183;28;20488;-84
2021/03/18 06:34:46;;;;;;;39.70;22.80;;;;;;;5.30;65.76;101170.97;5062344;28;21061;-84
2021/03/18 06:37:30;;;;;;;55.27;26.33;;;;;;;5.01;66.11;101165.44;5062884;28;20890;-84
2021/03/18 06:39:56;;;;;;;41.20;23.83;;;;;;;5.12;66.78;101171.03;5056296;28;20472;-83
2021/03/18 06:42:22;;;;;;;40.57;25.30;;;;;;;5.31;66.24;101164.72;5061423;28;20580;-84
2021/03/18 06:44:48;;;;;;;38.60;25.33;;;;;;;5.77;64.96;101162.16;5062128;28;20472;-84
2021/03/18 06:47:15;;;;;;;44.40;25.73;;;;;;;5.25;66.41;101171.22;5060335;28;20539;-85
2021/03/18 06:49:41;;;;;;;48.67;24.87;;;;;;;5.15;67.09;101168.19;5052699;28;20457;-84
2021/03/18 06:52:10;;;;;;;43.40;25.57;;;;;;;5.36;65.93;101171.47;5058955;28;20485;-88
2021/03/18 06:54:38;;;;;;;47.27;23.70;;;;;;;5.49;65.81;101174.31;5064322;28;20453;-87
2021/03/18 06:57:05;;;;;;;51.03;26.57;;;;;;;5.09;66.85;101174.69;5062543;28;20472;-88
2021/03/18 06:59:33;;;;;;;46.70;25.50;;;;;;;5.51;66.14;101169.78;5063183;28;20429;-86
2021/03/18 07:02:07;;;;;;;46.23;26.00;;;;;;;6.05;64.51;101179.19;5062184;28;21074;-84
2021/03/18 07:04:34;;;;;;;42.10;25.03;;;;;;;6.28;63.96;101168.06;5062553;28;20492;-84
2021/03/18 07:07:01;;;;;;;42.40;25.93;;;;;;;6.05;63.91;101169.41;5061309;28;20517;-83
2021/03/18 07:09:32;;;;;;;40.50;25.30;;;;;;;6.35;63.21;101166.78;5062605;28;20443;-86
2021/03/18 07:12:03;;;;;;;39.50;24.30;;;;;;;6.64;61.87;101169.50;5061104;28;20537;-84
2021/03/18 07:14:37;;;;;;;35.60;23.43;;;;;;;6.64;61.90;101173.94;5041519;28;20458;-86
2021/03/18 07:17:04;;;;;;;41.17;25.00;;;;;;;5.83;63.97;101167.09;5041843;28;20512;-86
2021/03/18 07:19:31;;;;;;;35.80;24.40;;;;;;;6.18;63.11;101172.19;5050136;28;20463;-85
2021/03/18 07:21:58;;;;;;;32.70;21.37;;;;;;;5.83;64.37;101173.28;5060430;28;20464;-84
2021/03/18 07:24:27;;;;;;;38.90;24.90;;;;;;;5.93;63.92;101173.59;5062126;28;20437;-86
2021/03/18 07:26:55;;;;;;;37.57;24.50;;;;;;;6.21;63.50;101175.56;5061544;28;20546;-85
2021/03/18 07:29:25;;;;;;;38.30;24.00;;;;;;;6.30;62.96;101175.94;5065296;28;20447;-85
2021/03/18 07:31:51;;;;;;;39.00;22.60;;;;;;;5.98;63.51;101182.19;5062319;28;20572;-87
2021/03/18 07:34:18;;;;;;;37.37;23.53;;;;;;;6.06;63.43;101187.06;5061595;28;20488;-84
2021/03/18 07:36:46;;;;;;;41.00;23.00;;;;;;;5.92;63.98;101174.56;5043477;28;20503;-81
2021/03/18 07:39:13;;;;;;;41.67;24.03;;;;;;;6.36;62.55;101176.44;5060005;28;20449;-82
2021/03/18 07:41:40;;;;;;;33.93;21.57;;;;;;;6.41;62.25;101174.38;5068288;28;20472;-84
2021/03/18 07:44:08;;;;;;;34.80;21.93;;;;;;;6.60;61.84;101176.78;5081625;28;20451;-82
2021/03/18 07:46:36;;;;;;;35.70;22.47;;;;;;;6.43;62.27;101179.59;5080062;28;20553;-83
2021/03/18 07:49:05;;;;;;;33.03;22.03;;;;;;;6.49;61.89;101181.03;5074981;28;20944;-83
2021/03/18 07:51:32;;;;;;;33.57;20.53;;;;;;;6.49;62.00;101176.59;5058181;28;21043;-85
2021/03/18 07:54:00;;;;;;;36.40;22.37;;;;;;;6.60;60.95;101174.13;5058198;28;20453;-79
2021/03/18 07:56:27;;;;;;;33.53;20.00;;;;;;;6.73;60.45;101173.38;5057198;28;20500;-80
2021/03/18 07:58:55;;;;;;;36.10;20.73;;;;;;;6.28;61.94;101165.41;5063708;28;20484;-85
2021/03/18 08:01:36;;;;;;;32.63;20.50;;;;;;;6.09;62.83;101165.63;5061669;28;20464;-85
2021/03/18 08:04:04;;;;;;;36.30;20.47;;;;;;;5.56;64.10;101161.59;5060056;28;20480;-84
2021/03/18 08:06:51;;;;;;;33.93;20.67;;;;;;;6.27;63.34;101168.16;5058991;28;20496;-87
2021/03/18 08:09:39;;;;;;;37.50;21.50;;;;;;;6.45;62.48;101163.56;5060667;28;20441;-88
2021/03/18 08:12:06;;;;;;;33.40;20.60;;;;;;;6.26;62.67;101163.81;5059327;28;20503;-86
2021/03/18 08:14:32;;;;;;;37.77;22.03;;;;;;;6.11;63.43;101170.84;5060112;28;20418;-87
2021/03/18 08:17:00;;;;;;;39.33;23.20;;;;;;;6.05;63.71;101163.25;5059057;28;20485;-83
2021/03/18 08:19:40;;;;;;;41.83;23.60;;;;;;;6.35;62.86;101165.91;5060238;28;20503;-81
2021/03/18 08:22:29;;;;;;;40.57;24.47;;;;;;;5.40;65.88;101164.19;5059269;28;20473;-85
2021/03/18 08:25:20;;;;;;;42.67;24.93;;;;;;;6.08;63.83;101158.63;5060879;28;20444;-85
2021/03/18 08:27:47;;;;;;;39.60;22.00;;;;;;;5.87;64.46;101163.34;5039569;28;20921;-84
2021/03/18 08:30:21;;;;;;;36.63;21.13;;;;;;;6.21;63.06;101164.06;5039760;28;20450;-84
2021/03/18 08:32:48;;;;;;;37.40;21.97;;;;;;;6.53;62.22;101166.63;5061653;28;20556;-85
2021/03/18 08:35:28;;;;;;;38.10;23.07;;;;;;;7.25;60.77;101166.66;5059416;28;20460;-84
2021/03/18 08:37:56;;;;;;;33.73;20.50;;;;;;;6.94;60.00;101172.09;5061025;28;20429;-81
2021/03/18 08:40:29;;;;;;;33.63;19.10;;;;;;;7.09;59.42;101172.94;5061196;28;20445;-88
2021/03/18 08:43:03;;;;;;;31.97;19.43;;;;;;;7.02;59.82;101173.41;5061878;28;20479;-81
2021/03/18 08:45:45;;;;;;;28.83;18.10;;;;;;;7.00;60.21;101168.19;5059363;28;20535;-81
2021/03/18 08:48:20;;;;;;;31.83;20.97;;;;;;;7.17;59.60;101164.50;5059336;28;20969;-83
2021/03/18 08:50:58;;;;;;;24.10;16.87;;;;;;;6.77;60.70;101170.47;5059149;28;20763;-84
2021/03/18 08:53:28;;;;;;;31.00;18.03;;;;;;;6.74;60.51;101173.31;5059916;28;20456;-84
2021/03/18 08:55:54;;;;;;;23.03;16.27;;;;;;;7.34;58.81;101168.72;5059400;28;20480;-84
2021/03/18 08:58:21;;;;;;;21.47;14.67;;;;;;;7.04;58.98;101169.69;5059545;28;20461;-82
2021/03/18 09:00:48;;;;;;;22.00;14.27;;;;;;;6.79;59.85;101163.25;5059195;28;20476;-86
2021/03/18 09:03:16;;;;;;;20.47;14.47;;;;;;;6.63;60.37;101159.81;5060480;28;20507;-82
2021/03/18 09:05:51;;;;;;;20.40;14.87;;;;;;;6.79;59.69;101160.59;5061861;28;20481;-84
2021/03/18 09:08:22;;;;;;;20.90;12.80;;;;;;;6.77;60.25;101162.50;5062235;28;20468;-86
2021/03/18 09:10:49;;;;;;;22.30;14.47;;;;;;;7.35;58.53;101159.81;5060457;28;20520;-80
2021/03/18 09:13:17;;;;;;;19.13;14.07;;;;;;;7.09;59.14;101162.28;5062123;28;20452;-86
2021/03/18 09:15:46;;;;;;;24.90;14.03;;;;;;;7.07;59.49;101156.22;5061667;28;20492;-88
2021/03/18 09:18:17;;;;;;;24.97;14.07;;;;;;;7.14;59.41;101162.00;5061440;28;20528;-84
2021/03/18 09:20:55;;;;;;;25.90;15.90;;;;;;;7.01;59.50;101156.59;5064858;28;20469;-83
2021/03/18 09:23:24;;;;;;;22.03;14.33;;;;;;;7.01;59.48;101158.41;5057499;28;20448;-84
2021/03/18 09:25:53;;;;;;;28.10;15.13;;;;;;;7.58;58.08;101155.66;5061091;28;20489;-85
2021/03/18 09:28:20;;;;;;;27.00;15.00;;;;;;;7.80;57.19;101155.13;5059980;28;20477;-85
2021/03/18 09:30:50;;;;;;;25.20;16.50;;;;;;;7.66;57.65;101152.53;5061964;28;20481;-84
2021/03/18 09:33:23;;;;;;;23.20;15.90;;;;;;;7.29;59.09;101157.53;5060075;28;20516;-82
2021/03/18 09:35:50;;;;;;;62.10;17.13;;;;;;;7.31;58.92;101150.31;5062087;28;20480;-83
2021/03/18 09:38:21;;;;;;;20.90;14.60;;;;;;;6.48;60.88;101155.44;5063333;28;20437;-87
2021/03/18 09:40:49;;;;;;;25.87;15.63;;;;;;;6.51;61.17;101155.22;5063650;28;20472;-84
2021/03/18 09:43:17;;;;;;;17.27;13.07;;;;;;;6.76;60.47;101149.28;5061196;28;20508;-86
2021/03/18 09:45:56;;;;;;;19.70;13.60;;;;;;;7.15;59.70;101147.75;5063812;28;21062;-86
2021/03/18 09:48:24;;;;;;;18.83;11.47;;;;;;;6.90;59.33;101145.78;5065843;28;20495;-84
2021/03/18 09:50:53;;;;;;;15.80;10.40;;;;;;;7.53;57.34;101142.69;5064161;28;20481;-81
2021/03/18 09:53:19;;;;;;;17.30;11.57;;;;;;;7.10;58.31;101153.38;5058138;28;20500;-87
2021/03/18 09:55:46;;;;;;;16.00;9.83;;;;;;;7.63;57.10;101142.06;5063600;28;20472;-89
2021/03/18 09:58:18;;;;;;;17.20;10.97;;;;;;;7.40;57.30;101135.59;5063249;28;20440;-87
2021/03/18 10:00:44;;;;;;;13.73;10.30;;;;;;;7.79;56.67;101137.44;5064925;28;20564;-83
2021/03/18 10:03:11;;;;;;;14.27;9.27;;;;;;;7.84;56.52;101124.69;5064138;28;20563;-82
2021/03/18 10:05:37;;;;;;;15.90;10.43;;;;;;;7.87;55.76;101121.81;5062116;28;20489;-87
2021/03/18 10:08:05;;;;;;;14.17;10.10;;;;;;;7.96;55.79;101119.50;5063966;28;20561;-87
2021/03/18 10:10:32;;;;;;;18.17;10.37;;;;;;;8.11;55.31;101126.47;5063879;28;20509;-86
2021/03/18 10:12:59;;;;;;;18.97;10.60;;;;;;;8.22;55.26;101115.94;5062742;28;20528;-85
2021/03/18 10:15:29;;;;;;;18.27;10.33;;;;;;;8.37;54.85;101114.06;5062891;28;20472;-86
2021/03/18 10:17:56;;;;;;;15.90;11.00;;;;;;;8.30;55.10;101121.59;5063493;28;20448;-83
2021/03/18 10:20:25;;;;;;;22.57;10.93;;;;;;;8.03;55.96;101123.47;5063100;28;20460;-86
2021/03/18 10:22:59;;;;;;;15.13;10.23;;;;;;;7.83;56.61;101112.34;5069634;28;20822;-88
2021/03/18 10:25:27;;;;;;;15.97;11.40;;;;;;;7.86;57.10;101104.16;5063551;28;20514;-87
2021/03/18 10:28:00;;;;;;;17.50;11.20;;;;;;;7.69;57.74;101107.94;5064063;28;20552;-87
2021/03/18 10:30:28;;;;;;;19.67;11.30;;;;;;;7.11;59.34;101115.19;5061871;28;20468;-85
2021/03/18 10:33:06;;;;;;;15.27;10.40;;;;;;;7.15;59.18;101114.06;5059588;28;20448;-89
2021/03/18 10:35:34;;;;;;;16.50;11.13;;;;;;;7.67;58.03;101111.63;5053418;28;21263;-87
2021/03/18 10:38:01;;;;;;;16.00;11.20;;;;;;;7.58;58.46;101114.91;5058331;28;20444;-87
2021/03/18 10:40:28;;;;;;;20.10;12.87;;;;;;;7.24;58.94;101104.63;5062233;28;20472;-85
2021/03/18 10:42:57;;;;;;;16.17;10.57;;;;;;;7.50;57.81;101102.94;5063624;28;20445;-83
2021/03/18 10:45:27;;;;;;;16.73;10.60;;;;;;;7.34;57.74;101111.06;5065686;28;20499;-83
2021/03/18 10:47:55;;;;;;;14.93;10.47;;;;;;;7.53;57.77;101110.75;5062259;28;20476;-87
2021/03/18 10:50:24;;;;;;;12.77;10.10;;;;;;;7.39;57.06;101099.28;5057724;28;20483;-85
2021/03/18 10:53:09;;;;;;;15.87;9.40;;;;;;;7.27;58.34;101107.06;5062562;28;20460;-81
2021/03/18 10:55:38;;;;;;;13.10;9.43;;;;;;;6.55;59.53;101106.28;4999338;28;20915;-85
2021/03/18 10:58:06;;;;;;;11.83;9.03;;;;;;;7.27;57.82;101100.91;4999763;28;20451;-87
2021/03/18 11:00:35;;;;;;;13.43;10.40;;;;;;;7.27;57.19;101104.41;5000535;28;20474;-86
2021/03/18 11:03:08;;;;;;;13.20;9.97;;;;;;;7.51;56.71;101096.66;5004229;28;20451;-83
2021/03/18 11:05:37;;;;;;;13.73;10.20;;;;;;;7.43;56.92;101099.00;4982387;28;20472;-85
2021/03/18 11:08:04;;;;;;;15.87;12.10;;;;;;;7.49;56.42;101095.91;4987714;28;20571;-85
2021/03/18 11:10:33;;;;;;;13.57;9.50;;;;;;;6.85;58.93;101105.34;4998464;28;20872;-81
2021/03/18 11:13:03;;;;;;;14.30;10.73;;;;;;;7.32;57.65;101091.69;4998443;28;20489;-84
2021/03/18 11:15:44;;;;;;;14.30;10.40;;;;;;;7.43;57.04;101083.03;4998670;28;20919;-83
2021/03/18 11:18:11;;;;;;;13.63;10.10;;;;;;;7.59;57.14;101087.34;4999304;28;20463;-83
2021/03/18 11:20:39;;;;;;;16.37;11.77;;;;;;;6.84;58.77;101079.69;4989242;28;20500;-82
2021/03/18 11:23:06;;;;;;;19.50;11.83;;;;;;;6.79;59.28;101077.34;4987748;28;20645;-81
2021/03/18 11:25:33;;;;;;;19.47;12.50;;;;;;;6.79;59.90;101069.38;4997939;28;20460;-83